EST,Max TemperatureF,Mean TemperatureF,Min TemperatureF,Max Dew PointF,MeanDew PointF,Min DewpointF,Max Humidity, Mean Humidity, Min Humidity, Max Sea Level PressureIn, Mean Sea Level PressureIn, Min Sea Level PressureIn, Max VisibilityMiles, Mean VisibilityMiles, Min VisibilityMiles, Max Wind SpeedMPH, Mean Wind SpeedMPH, Max Gust SpeedMPH,PrecipitationIn, CloudCover, Events, WindDirDegrees
2014-2-1,78,69,60,70,63,59,100,96,74,30.12,30.09,30.04,10,4,0,9,2,,0.01,6,Fog-Rain,67
2014-2-2,79,70,62,69,65,62,100,93,66,30.15,30.10,30.04,10,4,0,8,2,,0.00,3,Fog,22
2014-2-3,78,71,64,71,67,63,100,95,76,30.12,30.07,30.03,10,5,0,15,2,,0.00,6,Fog,243
2014-2-4,78,71,64,70,66,64,100,90,71,30.12,30.07,30.01,10,5,0,10,3,,0.00,0,Fog,133
2014-2-5,77,72,66,73,70,66,100,95,88,30.07,30.04,30.00,10,7,0,15,4,23,0.03,7,Fog-Rain,225
2014-2-6,69,63,55,66,61,53,90,86,81,30.16,30.08,30.03,10,9,6,21,8,28,0.00,7,Rain,33
2014-2-7,60,56,53,59,55,50,96,91,83,30.18,30.14,30.11,10,7,2,24,15,,0.13,8,Rain,62
2014-2-8,62,60,57,61,58,56,97,94,90,30.13,30.10,30.06,10,6,2,15,10,,0.03,7,Rain,52
2014-2-9,71,64,57,56,54,50,96,82,49,30.15,30.09,30.04,10,10,8,13,9,,0.00,4,,34
2014-2-10,72,64,57,58,55,53,90,74,53,30.13,30.08,30.04,10,10,10,9,5,,0.00,0,,35
2014-2-11,73,66,60,59,56,54,83,73,61,30.08,30.04,30.00,10,10,10,9,5,,0.00,2,,43
2014-2-12,73,66,59,67,61,57,100,94,76,30.02,29.90,29.73,10,5,0,21,9,26,0.82,5,Fog-Rain-Thunderstorm,147
2014-2-13,66,59,52,64,53,46,94,79,67,30.00,29.85,29.72,10,10,5,17,13,31,0.01,5,Rain,319
2014-2-14,61,56,50,52,47,43,86,72,53,30.09,30.01,29.96,10,10,10,12,5,,0.00,1,,251
2014-2-15,64,59,54,60,48,38,87,66,40,30.15,30.04,29.93,10,10,10,20,10,31,0.00,3,,324
2014-2-16,66,59,52,53,48,35,89,70,33,30.21,30.17,30.12,10,10,10,9,4,,0.00,0,,17
2014-2-17,73,64,55,55,49,41,93,64,31,30.24,30.19,30.16,10,10,10,12,6,,0.00,0,,51
2014-2-18,75,68,60,60,53,44,87,62,52,30.25,30.19,30.15,10,10,10,10,6,,0.00,0,,77
2014-2-19,75,69,63,64,61,59,97,79,60,30.18,30.12,30.07,10,10,10,12,6,,0.00,0,,203
2014-2-20,82,73,64,67,64,62,97,79,52,30.14,30.08,30.03,10,10,10,12,5,,0.00,1,,176
2014-2-21,78,72,66,71,69,66,100,92,79,30.05,30.03,30.00,10,8,0,20,8,25,0.00,6,Fog-Rain,206
2014-2-22,75,72,68,72,69,67,100,95,76,30.11,30.06,30.01,10,5,0,7,4,,0.11,7,Fog-Rain,236
2014-2-23,77,72,68,69,68,67,100,95,76,30.08,30.05,29.99,10,5,0,13,5,,0.00,5,Fog,201
2014-2-24,75,72,68,68,66,65,96,86,73,30.06,30.01,29.93,10,10,8,15,6,,0.00,4,Rain,153
2014-2-25,75,70,66,66,65,61,97,86,64,30.06,30.01,29.96,10,9,7,9,4,,0.00,3,,14
2014-2-26,73,68,63,69,65,62,100,90,81,29.95,29.83,29.73,10,7,0,18,7,28,0.32,5,Fog-Rain,258
2014-2-27,66,60,55,64,54,45,93,81,64,29.97,29.89,29.79,10,10,10,15,8,23,0.00,6,Rain,353
2014-2-28,64,59,54,50,43,38,77,57,37,30.12,30.04,29.95,10,10,10,13,8,,0.00,0,,31